This is the latest recevied weather packets stored in our database for station/object VK3BKO-13. If no packets are shown the sender has not sent any weather packets the latest 10 day(s).
| Time | Temp. | Humidity | Pressure | Rain* | Wind** | Luminosity | Snow |
|---|---|---|---|---|---|---|---|
| 1778048224 | 16.67° C | 60% | 1013.6 hPa | 0 mm | - | 46 W/m² | - |
| 1778047324 | 17.78° C | 57% | 1013.6 hPa | 0 mm | - | 95 W/m² | - |
| 1778046424 | 18.33° C | 54% | 1013.9 hPa | 0 mm | - | 121 W/m² | - |
| 1778045523 | 18.33° C | 53% | 1014.3 hPa | 0 mm | - | 152 W/m² | - |
| 1778044623 | 18.89° C | 52% | 1014.6 hPa | 0 mm | - | 185 W/m² | - |
| 1778043724 | 18.89° C | 52% | 1014.6 hPa | 0 mm | - | 138 W/m² | - |
| 1778042824 | 18.89° C | 53% | 1015.3 hPa | 0 mm | - | 164 W/m² | - |
| 1778041924 | 18.89° C | 53% | 1015.3 hPa | 0 mm | - | 345 W/m² | - |
| 1778041024 | 17.78° C | 56% | 1015.6 hPa | 0 mm | - | 423 W/m² | - |
| 1778040124 | 17.78° C | 58% | 1015.9 hPa | 0 mm | - | 154 W/m² | - |
| 1778039223 | 17.78° C | 58% | 1015.9 hPa | 0 mm | - | 218 W/m² | - |
| 1778038324 | 18.33° C | 55% | 1016.3 hPa | 0 mm | - | 523 W/m² | - |
| 1778037424 | 17.78° C | 59% | 1016.6 hPa | 0 mm | - | 526 W/m² | - |
| 1778036523 | 17.22° C | 58% | 1016.6 hPa | 0 mm | - | 172 W/m² | - |
| 1778035624 | 17.78° C | 56% | 1017 hPa | 0 mm | - | 179 W/m² | - |
| 1778034724 | 18.33° C | 54% | 1017.3 hPa | 0 mm | - | 580 W/m² | - |
| 1778033824 | 17.22° C | 58% | 1018 hPa | 0 mm | - | 278 W/m² | - |
| 1778032924 | 16.67° C | 58% | 1018 hPa | 0 mm | - | 236 W/m² | - |
| 1778032024 | 16.67° C | 60% | 1018.3 hPa | 0 mm | - | 191 W/m² | - |
| 1778031124 | 15.56° C | 60% | 1018.7 hPa | 0 mm | - | 116 W/m² | - |
| 1778030223 | 15.56° C | 61% | 1018.7 hPa | 0 mm | - | 105 W/m² | - |
| 1778029323 | 15.56° C | 61% | 1019 hPa | 0 mm | - | 141 W/m² | - |
| 1778028424 | 15.56° C | 60% | 1019 hPa | 0 mm | - | 138 W/m² | - |
| 1778027525 | 15.56° C | 61% | 1019.3 hPa | 0 mm | - | 162 W/m² | - |
| 1778026624 | 15.56° C | 62% | 1019.3 hPa | 0 mm | - | 166 W/m² | - |
* Rain latest hour (hover to see other rain measurements)
** Current wind speed in m/s (hover to see current wind gust speed)